createdAt,value
2023-10-03T00:00:52.699Z,989.81
2023-10-03T00:01:52.559Z,989.81
2023-10-03T00:02:52.622Z,989.79
2023-10-03T00:03:52.532Z,989.80
2023-10-03T00:04:52.305Z,989.79
2023-10-03T00:05:52.288Z,989.79
2023-10-03T00:06:52.137Z,989.77
2023-10-03T00:07:52.049Z,989.81
2023-10-03T00:08:51.999Z,989.75
2023-10-03T00:09:51.870Z,989.78
2023-10-03T00:10:51.797Z,989.76
2023-10-03T00:11:51.720Z,989.70
2023-10-03T00:12:51.622Z,989.70
2023-10-03T00:13:51.580Z,989.69
2023-10-03T00:14:51.515Z,989.64
2023-10-03T00:15:51.416Z,989.56
2023-10-03T00:16:51.330Z,989.60
2023-10-03T00:17:51.213Z,989.53
2023-10-03T00:18:51.120Z,989.57
2023-10-03T00:19:51.072Z,989.54
2023-10-03T00:20:50.975Z,989.56
2023-10-03T00:21:50.858Z,989.56
2023-10-03T00:22:50.789Z,989.53
2023-10-03T00:23:50.691Z,989.49
2023-10-03T00:24:50.592Z,989.50
2023-10-03T00:25:50.511Z,989.44
2023-10-03T00:26:50.522Z,989.39
2023-10-03T00:27:50.357Z,989.37
2023-10-03T00:28:50.284Z,989.31
2023-10-03T00:29:50.230Z,989.31
2023-10-03T00:30:50.193Z,989.32
2023-10-03T00:31:49.998Z,989.33
2023-10-03T00:32:50.099Z,989.32
2023-10-03T00:33:49.838Z,989.27
2023-10-03T00:34:49.747Z,989.31
2023-10-03T00:35:49.802Z,989.31
2023-10-03T00:36:49.585Z,989.34
2023-10-03T00:37:49.491Z,989.28
2023-10-03T00:38:49.471Z,989.26
2023-10-03T00:39:49.323Z,989.23
2023-10-03T00:40:49.258Z,989.20
2023-10-03T00:41:49.192Z,989.22
2023-10-03T00:42:49.078Z,989.19
2023-10-03T00:43:49.003Z,989.18
2023-10-03T00:44:48.935Z,989.13
2023-10-03T00:45:48.812Z,989.16
2023-10-03T00:46:48.765Z,989.15
2023-10-03T00:47:48.780Z,989.09
2023-10-03T00:48:48.586Z,989.03
2023-10-03T00:49:48.492Z,989.15
2023-10-03T00:50:48.463Z,989.14
2023-10-03T00:51:48.302Z,989.09
2023-10-03T00:52:48.223Z,989.11
2023-10-03T00:53:48.138Z,989.11
2023-10-03T00:54:48.053Z,989.09
2023-10-03T00:55:47.966Z,989.06
2023-10-03T00:56:47.950Z,989.08
2023-10-03T00:57:47.793Z,989.00
2023-10-03T00:58:47.716Z,989.00
2023-10-03T00:59:47.666Z,989.02
2023-10-03T01:00:47.603Z,988.90
2023-10-03T01:01:47.497Z,988.90
2023-10-03T01:02:47.551Z,988.84
2023-10-03T01:03:47.417Z,988.86
2023-10-03T01:04:47.247Z,988.85
2023-10-03T01:05:47.131Z,988.81
2023-10-03T01:06:47.034Z,988.77
2023-10-03T01:07:46.948Z,988.73
2023-10-03T01:08:46.927Z,988.75
2023-10-03T01:09:46.800Z,988.68
2023-10-03T01:10:46.700Z,988.71
2023-10-03T01:11:46.649Z,988.72
2023-10-03T01:12:46.564Z,988.68
2023-10-03T01:13:46.440Z,988.71
2023-10-03T01:14:46.379Z,988.63
2023-10-03T01:15:46.286Z,988.66
2023-10-03T01:16:46.219Z,988.59
2023-10-03T01:17:46.250Z,988.65
2023-10-03T01:18:46.028Z,988.57
2023-10-03T01:19:45.936Z,988.56
2023-10-03T01:20:45.869Z,988.53
2023-10-03T01:21:45.765Z,988.45
2023-10-03T01:22:45.686Z,988.50
2023-10-03T01:23:45.623Z,988.43
2023-10-03T01:24:45.540Z,988.49
2023-10-03T01:25:45.429Z,988.37
2023-10-03T01:26:45.453Z,988.38
2023-10-03T01:27:45.260Z,988.40
2023-10-03T01:28:45.202Z,988.39
2023-10-03T01:29:45.117Z,988.40
2023-10-03T01:30:45.042Z,988.38
2023-10-03T01:31:44.923Z,988.39
2023-10-03T01:32:44.905Z,988.35
2023-10-03T01:33:44.753Z,988.32
2023-10-03T01:34:44.668Z,988.30
2023-10-03T01:35:44.620Z,988.26
2023-10-03T01:36:44.505Z,988.29
2023-10-03T01:37:44.418Z,988.26
2023-10-03T01:38:44.351Z,988.19
2023-10-03T01:39:44.254Z,988.18
2023-10-03T01:40:44.189Z,988.20
2023-10-03T01:41:44.263Z,988.20
2023-10-03T01:42:43.994Z,988.17
2023-10-03T01:43:43.914Z,988.17
2023-10-03T01:44:43.881Z,988.14
2023-10-03T01:45:43.775Z,988.07
2023-10-03T01:46:43.708Z,988.09
2023-10-03T01:47:43.690Z,987.98
2023-10-03T01:48:43.493Z,987.98
2023-10-03T01:49:43.411Z,988.00
2023-10-03T01:50:43.412Z,987.93
2023-10-03T01:51:43.243Z,987.92
2023-10-03T01:52:43.164Z,987.92
2023-10-03T01:53:43.136Z,987.88
2023-10-03T01:54:43.003Z,987.87
2023-10-03T01:55:42.900Z,987.84
2023-10-03T01:56:43.025Z,987.72
2023-10-03T01:57:42.747Z,987.78
2023-10-03T01:58:42.659Z,987.74
2023-10-03T01:59:42.608Z,987.65
2023-10-03T02:00:42.485Z,987.63
2023-10-03T02:01:42.471Z,987.68
2023-10-03T02:02:42.409Z,987.64
2023-10-03T02:03:42.403Z,987.59
2023-10-03T02:04:42.151Z,987.57
2023-10-03T02:05:42.099Z,987.55
2023-10-03T02:06:41.980Z,987.55
2023-10-03T02:07:42.754Z,987.55
2023-10-03T02:08:41.892Z,987.49
2023-10-03T02:09:41.745Z,987.52
2023-10-03T02:10:41.638Z,987.41
2023-10-03T02:11:41.644Z,987.40
2023-10-03T02:12:41.488Z,987.33
2023-10-03T02:13:41.432Z,987.34
2023-10-03T02:14:41.343Z,987.30
2023-10-03T02:15:41.261Z,987.37
2023-10-03T02:16:41.188Z,987.29
2023-10-03T02:17:41.094Z,987.29
2023-10-03T02:18:40.990Z,987.25
2023-10-03T02:19:40.889Z,987.18
2023-10-03T02:20:40.811Z,987.17
2023-10-03T02:21:40.711Z,987.15
2023-10-03T02:22:40.657Z,987.13
2023-10-03T02:23:40.605Z,987.09
2023-10-03T02:24:40.481Z,987.08
2023-10-03T02:25:40.422Z,987.07
2023-10-03T02:26:40.303Z,987.07
2023-10-03T02:27:40.292Z,987.03
2023-10-03T02:28:40.247Z,987.03
2023-10-03T02:29:40.058Z,987.06
2023-10-03T02:30:39.961Z,986.96
2023-10-03T02:31:39.882Z,986.91
2023-10-03T02:32:39.841Z,986.87
2023-10-03T02:33:39.731Z,986.87
2023-10-03T02:34:39.632Z,986.84
2023-10-03T02:35:39.668Z,986.74
2023-10-03T02:36:39.453Z,986.86
2023-10-03T02:37:39.371Z,986.79
2023-10-03T02:38:39.343Z,986.76
2023-10-03T02:39:39.226Z,986.81
2023-10-03T02:40:39.137Z,986.82
2023-10-03T02:41:40.632Z,986.65
2023-10-03T02:42:38.957Z,986.74
2023-10-03T02:43:38.870Z,986.63
2023-10-03T02:44:38.878Z,986.73
2023-10-03T02:45:38.713Z,986.58
2023-10-03T02:46:38.628Z,986.57
2023-10-03T02:47:38.620Z,986.61
2023-10-03T02:48:38.485Z,986.54
2023-10-03T02:49:38.406Z,986.59
2023-10-03T02:50:38.304Z,986.56
2023-10-03T02:51:38.191Z,986.57
2023-10-03T02:52:38.110Z,986.60
2023-10-03T02:53:38.178Z,986.57
2023-10-03T02:54:37.941Z,986.58
2023-10-03T02:55:37.873Z,986.56
2023-10-03T02:56:37.800Z,986.67
2023-10-03T02:57:37.715Z,986.56
2023-10-03T02:58:37.611Z,986.47
2023-10-03T02:59:37.568Z,986.49
2023-10-03T03:00:37.471Z,986.44
2023-10-03T03:01:37.363Z,986.47
2023-10-03T03:02:37.418Z,986.44
2023-10-03T03:03:37.300Z,986.33
2023-10-03T03:04:37.111Z,986.39
2023-10-03T03:05:37.049Z,986.28
2023-10-03T03:06:36.980Z,986.24
2023-10-03T03:07:36.853Z,986.26
2023-10-03T03:08:36.830Z,986.16
2023-10-03T03:09:36.698Z,986.19
2023-10-03T03:10:36.602Z,986.19
2023-10-03T03:11:36.563Z,986.16
2023-10-03T03:12:36.441Z,986.20
2023-10-03T03:13:36.371Z,986.20
2023-10-03T03:14:36.317Z,986.11
2023-10-03T03:15:36.191Z,986.17
2023-10-03T03:16:36.102Z,986.10
2023-10-03T03:17:36.098Z,986.08
2023-10-03T03:18:35.941Z,986.16
2023-10-03T03:19:35.910Z,986.11
2023-10-03T03:20:35.842Z,986.05
2023-10-03T03:21:35.676Z,986.13
2023-10-03T03:22:35.621Z,985.98
2023-10-03T03:23:35.613Z,986.03
2023-10-03T03:24:35.615Z,986.08
2023-10-03T03:25:35.343Z,986.09
2023-10-03T03:26:35.270Z,986.11
2023-10-03T03:27:35.235Z,986.03
2023-10-03T03:28:35.100Z,986.08
2023-10-03T03:29:35.037Z,986.01
2023-10-03T03:30:34.928Z,986.02
2023-10-03T03:31:34.878Z,986.03
2023-10-03T03:32:34.818Z,986.05
2023-10-03T03:33:34.813Z,985.99
2023-10-03T03:34:34.630Z,985.88
2023-10-03T03:35:34.561Z,985.88
2023-10-03T03:36:34.430Z,985.88
2023-10-03T03:37:34.355Z,985.77
2023-10-03T03:38:34.296Z,985.77
2023-10-03T03:39:34.188Z,985.75
2023-10-03T03:40:34.090Z,985.84
2023-10-03T03:41:34.039Z,985.80
2023-10-03T03:42:33.965Z,985.80
2023-10-03T03:43:33.889Z,985.75
2023-10-03T03:44:33.799Z,985.61
2023-10-03T03:45:33.721Z,985.66
2023-10-03T03:46:33.600Z,985.75
2023-10-03T03:47:33.584Z,985.71
2023-10-03T03:48:33.471Z,985.59
2023-10-03T03:49:33.340Z,985.70
2023-10-03T03:50:35.426Z,985.65
2023-10-03T03:51:33.200Z,985.55
2023-10-03T03:52:33.098Z,985.67
2023-10-03T03:53:33.066Z,985.59
2023-10-03T03:54:32.952Z,985.60
2023-10-03T03:55:32.840Z,985.40
2023-10-03T03:56:32.794Z,985.49
2023-10-03T03:57:32.714Z,985.49
2023-10-03T03:58:32.602Z,985.50
2023-10-03T03:59:32.523Z,985.47
2023-10-03T04:00:32.428Z,985.32
2023-10-03T04:01:32.383Z,985.40
2023-10-03T04:02:32.299Z,985.28
2023-10-03T04:03:32.310Z,985.35
2023-10-03T04:04:32.114Z,985.22
2023-10-03T04:05:32.043Z,985.17
2023-10-03T04:06:31.935Z,985.23
2023-10-03T04:07:31.848Z,985.39
2023-10-03T04:08:31.787Z,985.18
2023-10-03T04:09:31.693Z,985.33
2023-10-03T04:10:31.608Z,985.27
2023-10-03T04:11:31.546Z,985.33
2023-10-03T04:12:31.426Z,985.06
2023-10-03T04:13:31.333Z,984.95
2023-10-03T04:14:31.288Z,985.04
2023-10-03T04:15:31.163Z,985.00
2023-10-03T04:16:31.089Z,985.14
2023-10-03T04:17:31.093Z,985.11
2023-10-03T04:18:31.028Z,984.98
2023-10-03T04:19:30.834Z,985.14
2023-10-03T04:20:30.784Z,985.07
2023-10-03T04:21:30.661Z,985.01
2023-10-03T04:22:30.583Z,985.08
2023-10-03T04:23:30.596Z,985.11
2023-10-03T04:24:30.467Z,985.02
2023-10-03T04:25:30.358Z,985.04
2023-10-03T04:26:30.269Z,985.23
2023-10-03T04:27:30.168Z,985.09
2023-10-03T04:28:30.088Z,985.32
2023-10-03T04:29:30.058Z,985.28
2023-10-03T04:30:29.911Z,985.23
2023-10-03T04:31:29.897Z,985.25
2023-10-03T04:32:29.832Z,985.28
2023-10-03T04:33:29.699Z,985.21
2023-10-03T04:34:29.586Z,985.17
2023-10-03T04:35:29.671Z,985.20
2023-10-03T04:36:29.416Z,985.20
2023-10-03T04:37:29.375Z,985.20
2023-10-03T04:38:29.284Z,985.20
2023-10-03T04:39:29.163Z,985.13
2023-10-03T04:40:29.075Z,985.25
2023-10-03T04:41:29.026Z,985.22
2023-10-03T04:42:28.932Z,985.21
2023-10-03T04:43:28.846Z,985.21
2023-10-03T04:44:28.780Z,985.21
2023-10-03T04:45:28.747Z,985.14
2023-10-03T04:46:28.579Z,985.19
2023-10-03T04:47:28.563Z,985.11
2023-10-03T04:48:28.462Z,985.10
2023-10-03T04:49:28.373Z,985.13
2023-10-03T04:50:28.264Z,984.94
2023-10-03T04:51:28.178Z,984.90
2023-10-03T04:52:28.077Z,984.73
2023-10-03T04:53:28.082Z,984.80
2023-10-03T04:54:27.916Z,984.88
2023-10-03T04:55:27.840Z,984.90
2023-10-03T04:56:27.816Z,984.88
2023-10-03T04:57:27.667Z,984.88
2023-10-03T04:58:27.584Z,984.85
2023-10-03T04:59:27.519Z,984.65
2023-10-03T05:00:27.426Z,984.67
2023-10-03T05:01:27.495Z,984.76
2023-10-03T05:02:27.367Z,984.79
2023-10-03T05:03:27.347Z,984.83
2023-10-03T05:04:27.116Z,984.76
2023-10-03T05:05:27.028Z,984.81
2023-10-03T05:06:26.908Z,984.69
2023-10-03T05:07:26.838Z,984.69
2023-10-03T05:08:26.800Z,984.60
2023-10-03T05:09:26.671Z,984.53
2023-10-03T05:10:26.589Z,984.71
2023-10-03T05:11:26.518Z,984.62
2023-10-03T05:12:26.409Z,984.64
2023-10-03T05:13:26.360Z,984.57
2023-10-03T05:14:26.259Z,984.58
2023-10-03T05:15:26.194Z,984.56
2023-10-03T05:16:26.125Z,984.50
2023-10-03T05:17:26.141Z,984.59
2023-10-03T05:18:25.976Z,984.55
2023-10-03T05:19:25.859Z,984.63
2023-10-03T05:20:25.767Z,984.70
2023-10-03T05:21:25.667Z,984.44
2023-10-03T05:22:25.586Z,984.48
2023-10-03T05:23:25.712Z,984.55
2023-10-03T05:24:25.410Z,984.40
2023-10-03T05:25:25.326Z,984.46
2023-10-03T05:26:25.278Z,984.42
2023-10-03T05:27:25.158Z,984.38
2023-10-03T05:28:25.075Z,984.39
2023-10-03T05:29:25.036Z,984.39
2023-10-03T05:30:24.913Z,984.55
2023-10-03T05:31:24.843Z,984.56
2023-10-03T05:32:24.814Z,984.65
2023-10-03T05:33:24.737Z,984.53
2023-10-03T05:34:24.618Z,984.67
2023-10-03T05:35:24.509Z,984.54
2023-10-03T05:36:24.426Z,984.59
2023-10-03T05:37:24.333Z,984.56
2023-10-03T05:38:24.278Z,984.47
2023-10-03T05:39:24.162Z,984.57
2023-10-03T05:40:24.098Z,984.44
2023-10-03T05:41:24.024Z,984.58
2023-10-03T05:42:23.913Z,984.48
2023-10-03T05:43:24.962Z,984.45
2023-10-03T05:44:23.755Z,984.56
2023-10-03T05:45:23.670Z,984.51
2023-10-03T05:46:23.601Z,984.48
2023-10-03T05:47:23.594Z,984.50
2023-10-03T05:48:23.601Z,984.47
2023-10-03T05:49:23.329Z,984.36
2023-10-03T05:50:23.291Z,984.43
2023-10-03T05:51:23.207Z,984.35
2023-10-03T05:52:23.077Z,984.22
2023-10-03T05:53:23.038Z,984.40
2023-10-03T05:54:22.908Z,984.42
2023-10-03T05:55:22.854Z,984.44
2023-10-03T05:56:22.795Z,984.34
2023-10-03T05:57:22.680Z,984.37
2023-10-03T05:58:22.568Z,984.36
2023-10-03T05:59:22.614Z,984.24
2023-10-03T06:00:22.702Z,984.48
2023-10-03T06:01:22.348Z,984.49
2023-10-03T06:02:22.287Z,984.52
2023-10-03T06:03:22.408Z,984.49
2023-10-03T06:04:22.142Z,984.51
2023-10-03T06:05:21.983Z,984.39
2023-10-03T06:06:21.913Z,984.46
2023-10-03T06:07:21.850Z,984.52
2023-10-03T06:08:21.762Z,984.41
2023-10-03T06:09:21.672Z,984.40
2023-10-03T06:10:21.573Z,984.41
2023-10-03T06:11:21.481Z,984.39
2023-10-03T06:12:21.397Z,984.32
2023-10-03T06:13:21.321Z,984.44
2023-10-03T06:14:21.254Z,984.50
2023-10-03T06:15:21.168Z,984.44
2023-10-03T06:16:21.085Z,984.40
2023-10-03T06:17:21.022Z,984.51
2023-10-03T06:18:21.021Z,984.55
2023-10-03T06:19:20.817Z,984.57
2023-10-03T06:20:20.738Z,984.47
2023-10-03T06:21:20.748Z,984.43
2023-10-03T06:22:20.576Z,984.27
2023-10-03T06:23:20.521Z,984.45
2023-10-03T06:24:20.405Z,984.42
2023-10-03T06:25:20.347Z,984.33
2023-10-03T06:26:20.300Z,984.39
2023-10-03T06:27:20.148Z,984.34
2023-10-03T06:28:20.067Z,984.28
2023-10-03T06:29:19.988Z,984.29
2023-10-03T06:30:19.902Z,984.39
2023-10-03T06:31:19.832Z,984.42
2023-10-03T06:32:19.756Z,984.46
2023-10-03T06:33:19.742Z,984.40
2023-10-03T06:34:19.622Z,984.51
2023-10-03T06:35:19.508Z,984.34
2023-10-03T06:36:19.397Z,984.48
2023-10-03T06:37:19.323Z,984.47
2023-10-03T06:38:19.238Z,984.48
2023-10-03T06:39:19.154Z,984.45
2023-10-03T06:40:19.089Z,984.38
2023-10-03T06:41:18.998Z,984.48
2023-10-03T06:42:19.579Z,984.50
2023-10-03T06:43:18.826Z,984.43
2023-10-03T06:44:18.723Z,984.57
2023-10-03T06:45:18.693Z,984.54
2023-10-03T06:46:18.672Z,984.31
2023-10-03T06:47:18.480Z,984.52
2023-10-03T06:48:18.434Z,984.47
2023-10-03T06:49:18.316Z,984.43
2023-10-03T06:50:18.264Z,984.41
2023-10-03T06:51:18.223Z,984.30
2023-10-03T06:52:18.126Z,984.44
2023-10-03T06:53:17.995Z,984.40
2023-10-03T06:54:17.942Z,984.52
2023-10-03T06:55:17.819Z,984.39
2023-10-03T06:56:17.726Z,984.42
2023-10-03T06:57:17.779Z,984.54
2023-10-03T06:58:17.628Z,984.57
2023-10-03T06:59:17.473Z,984.52
2023-10-03T07:00:17.399Z,984.57
2023-10-03T07:01:17.379Z,984.67
2023-10-03T07:02:17.239Z,984.57
2023-10-03T07:03:17.320Z,984.49
2023-10-03T07:04:17.300Z,984.54
2023-10-03T07:05:17.001Z,984.68
2023-10-03T07:06:16.944Z,984.63
2023-10-03T07:07:16.810Z,984.72
2023-10-03T07:08:16.729Z,984.68
2023-10-03T07:09:16.694Z,984.76
2023-10-03T07:10:16.564Z,984.77
2023-10-03T07:11:16.487Z,984.76
2023-10-03T07:12:16.400Z,984.84
2023-10-03T07:13:16.323Z,984.93
2023-10-03T07:14:16.259Z,984.84
2023-10-03T07:15:16.163Z,984.72
2023-10-03T07:16:16.106Z,984.89
2023-10-03T07:17:15.980Z,984.96
2023-10-03T07:18:15.995Z,984.93
2023-10-03T07:19:15.818Z,984.82
2023-10-03T07:20:15.744Z,984.75
2023-10-03T07:21:15.652Z,984.85
2023-10-03T07:22:15.570Z,984.82
2023-10-03T07:23:15.511Z,984.81
2023-10-03T07:24:15.453Z,984.85
2023-10-03T07:25:15.328Z,984.81
2023-10-03T07:26:15.239Z,984.74
2023-10-03T07:27:15.145Z,984.76
2023-10-03T07:28:15.060Z,984.73
2023-10-03T07:29:14.995Z,984.84
2023-10-03T07:30:15.024Z,984.80
2023-10-03T07:31:15.166Z,984.83
2023-10-03T07:32:14.733Z,984.88
2023-10-03T07:33:14.938Z,984.92
2023-10-03T07:34:14.573Z,984.85
2023-10-03T07:35:14.477Z,984.90
2023-10-03T07:36:14.400Z,984.99
2023-10-03T07:37:14.316Z,984.93
2023-10-03T07:38:16.133Z,984.99
2023-10-03T07:39:14.144Z,984.98
2023-10-03T07:40:14.083Z,985.03
2023-10-03T07:41:13.982Z,985.12
2023-10-03T07:42:13.889Z,985.00
2023-10-03T07:43:13.812Z,985.10
2023-10-03T07:44:13.746Z,985.15
2023-10-03T07:45:13.644Z,985.10
2023-10-03T07:46:13.593Z,985.33
2023-10-03T07:47:13.490Z,985.14
2023-10-03T07:48:13.592Z,985.18
2023-10-03T07:49:13.319Z,985.16
2023-10-03T07:50:13.581Z,985.10
2023-10-03T07:51:13.172Z,985.05
2023-10-03T07:52:13.084Z,985.10
2023-10-03T07:53:12.996Z,985.18
2023-10-03T07:54:12.968Z,985.32
2023-10-03T07:55:12.831Z,985.24
2023-10-03T07:56:12.730Z,985.11
2023-10-03T07:57:12.681Z,985.19
2023-10-03T07:58:12.568Z,985.13
2023-10-03T07:59:12.493Z,985.11
2023-10-03T08:00:12.399Z,985.04
2023-10-03T08:01:12.848Z,985.13
2023-10-03T08:02:12.858Z,985.05
2023-10-03T08:03:12.341Z,985.10
2023-10-03T08:04:12.223Z,984.93
2023-10-03T08:05:12.061Z,984.88
2023-10-03T08:06:11.988Z,984.98
2023-10-03T08:07:11.825Z,984.97
2023-10-03T08:08:11.741Z,984.98
2023-10-03T08:09:11.735Z,984.97
2023-10-03T08:10:11.613Z,985.07
2023-10-03T08:11:11.480Z,985.11
2023-10-03T08:12:11.452Z,985.09
2023-10-03T08:13:11.330Z,985.14
2023-10-03T08:14:11.229Z,985.12
2023-10-03T08:15:11.166Z,985.13
2023-10-03T08:16:11.079Z,985.15
2023-10-03T08:17:10.985Z,985.21
2023-10-03T08:18:10.956Z,985.17
2023-10-03T08:19:10.838Z,985.19
2023-10-03T08:20:10.755Z,985.04
2023-10-03T08:21:10.677Z,985.03
2023-10-03T08:22:10.561Z,985.23
2023-10-03T08:23:10.522Z,985.24
2023-10-03T08:24:10.435Z,985.16
2023-10-03T08:25:10.337Z,985.24
2023-10-03T08:26:10.244Z,985.19
2023-10-03T08:27:10.188Z,985.19
2023-10-03T08:28:10.079Z,985.30
2023-10-03T08:29:10.005Z,985.31
2023-10-03T08:30:09.931Z,985.33
2023-10-03T08:31:09.846Z,985.24
2023-10-03T08:32:09.750Z,985.38
2023-10-03T08:33:09.764Z,985.27
2023-10-03T08:34:09.576Z,985.30
2023-10-03T08:35:09.485Z,985.17
2023-10-03T08:36:09.470Z,985.25
2023-10-03T08:37:09.326Z,985.23
2023-10-03T08:38:09.868Z,985.28
2023-10-03T08:39:09.223Z,985.36
2023-10-03T08:40:09.126Z,985.30
2023-10-03T08:41:08.998Z,985.35
2023-10-03T08:42:08.937Z,985.25
2023-10-03T08:43:08.821Z,985.27
2023-10-03T08:44:08.743Z,985.31
2023-10-03T08:45:08.710Z,985.29
2023-10-03T08:46:08.593Z,985.20
2023-10-03T08:47:08.496Z,985.30
2023-10-03T08:48:08.461Z,985.03
2023-10-03T08:49:08.929Z,985.08
2023-10-03T08:50:08.245Z,985.06
2023-10-03T08:51:08.248Z,985.13
2023-10-03T08:52:08.078Z,985.24
2023-10-03T08:53:08.006Z,985.15
2023-10-03T08:54:07.945Z,985.02
2023-10-03T08:55:07.836Z,984.84
2023-10-03T08:56:07.771Z,984.89
2023-10-03T08:57:07.721Z,984.97
2023-10-03T08:58:07.612Z,985.03
2023-10-03T08:59:07.567Z,985.05
2023-10-03T09:00:07.472Z,985.17
2023-10-03T09:01:07.343Z,985.11
2023-10-03T09:02:07.339Z,985.20
2023-10-03T09:03:07.330Z,985.16
2023-10-03T09:04:07.256Z,985.18
2023-10-03T09:05:07.003Z,985.27
2023-10-03T09:06:07.021Z,985.36
2023-10-03T09:07:06.855Z,985.47
2023-10-03T09:08:06.885Z,985.37
2023-10-03T09:09:06.936Z,985.35
2023-10-03T09:10:06.601Z,985.43
2023-10-03T09:11:06.501Z,985.51
2023-10-03T09:12:06.483Z,985.59
2023-10-03T09:13:06.394Z,985.49
2023-10-03T09:14:06.316Z,985.54
2023-10-03T09:15:06.232Z,985.57
2023-10-03T09:16:06.159Z,985.70
2023-10-03T09:17:06.090Z,985.56
2023-10-03T09:18:06.019Z,985.70
2023-10-03T09:19:05.857Z,985.54
2023-10-03T09:20:05.773Z,985.72
2023-10-03T09:21:05.858Z,985.59
2023-10-03T09:22:05.644Z,985.59
2023-10-03T09:23:05.520Z,985.56
2023-10-03T09:24:05.550Z,985.50
2023-10-03T09:25:05.360Z,985.55
2023-10-03T09:26:05.264Z,985.24
2023-10-03T09:27:05.279Z,985.85
2023-10-03T09:28:05.114Z,985.46
2023-10-03T09:29:05.079Z,985.16
2023-10-03T09:30:04.994Z,985.16
2023-10-03T09:31:04.860Z,985.08
2023-10-03T09:32:04.798Z,985.26
2023-10-03T09:33:04.776Z,985.24
2023-10-03T09:34:04.738Z,985.24
2023-10-03T09:35:04.529Z,985.26
2023-10-03T09:36:04.522Z,985.40
2023-10-03T09:37:04.367Z,985.28
2023-10-03T09:38:04.335Z,985.35
2023-10-03T09:39:04.387Z,985.53
2023-10-03T09:40:04.173Z,985.62
2023-10-03T09:41:04.030Z,985.45
2023-10-03T09:42:03.990Z,985.66
2023-10-03T09:43:03.915Z,985.57
2023-10-03T09:44:03.783Z,985.55
2023-10-03T09:45:03.818Z,985.54
2023-10-03T09:46:03.708Z,985.55
2023-10-03T09:47:03.577Z,985.55
2023-10-03T09:48:03.530Z,985.43
2023-10-03T09:49:03.633Z,985.35
2023-10-03T09:50:03.284Z,985.48
2023-10-03T09:51:03.265Z,985.45
2023-10-03T09:52:03.130Z,985.61
2023-10-03T09:53:03.289Z,985.62
2023-10-03T09:54:03.037Z,985.58
2023-10-03T09:55:02.941Z,985.79
2023-10-03T09:56:02.813Z,985.74
2023-10-03T09:57:02.742Z,985.77
2023-10-03T09:58:02.639Z,985.61
2023-10-03T09:59:02.671Z,985.80
2023-10-03T10:00:02.584Z,985.75
2023-10-03T10:01:02.385Z,985.94
2023-10-03T10:02:02.300Z,985.86
2023-10-03T10:03:02.324Z,985.88
2023-10-03T10:04:02.323Z,985.84
2023-10-03T10:05:02.053Z,985.90
2023-10-03T10:06:02.039Z,985.86
2023-10-03T10:07:01.900Z,985.83
2023-10-03T10:08:01.891Z,985.80
2023-10-03T10:09:01.960Z,985.76
2023-10-03T10:10:01.676Z,985.80
2023-10-03T10:11:01.626Z,985.83
2023-10-03T10:12:01.588Z,985.76
2023-10-03T10:13:01.407Z,985.80
2023-10-03T10:14:01.323Z,985.76
2023-10-03T10:15:01.306Z,985.71
2023-10-03T10:16:01.186Z,985.85
2023-10-03T10:17:01.107Z,985.85
2023-10-03T10:18:01.076Z,985.78
2023-10-03T10:19:02.054Z,985.87
2023-10-03T10:20:00.970Z,985.93
2023-10-03T10:21:00.760Z,986.08
2023-10-03T10:22:00.739Z,986.01
2023-10-03T10:23:00.580Z,985.95
2023-10-03T10:24:00.569Z,985.98
2023-10-03T10:25:00.497Z,986.04
2023-10-03T10:26:00.342Z,986.04
2023-10-03T10:27:00.274Z,985.99
2023-10-03T10:28:00.172Z,985.97
2023-10-03T10:29:00.143Z,985.98
2023-10-03T10:30:00.092Z,985.88
2023-10-03T10:30:59.942Z,985.86
2023-10-03T10:31:59.930Z,985.82
2023-10-03T10:32:59.846Z,985.91
2023-10-03T10:33:59.749Z,985.92
2023-10-03T10:34:59.591Z,986.03
2023-10-03T10:35:59.552Z,985.93
2023-10-03T10:36:59.433Z,985.90
2023-10-03T10:37:59.344Z,985.75
2023-10-03T10:38:59.305Z,985.81
2023-10-03T10:39:59.175Z,985.85
2023-10-03T10:40:59.112Z,985.92
2023-10-03T10:41:59.069Z,985.81
2023-10-03T10:42:58.930Z,985.82
2023-10-03T10:43:58.881Z,985.88
2023-10-03T10:44:58.845Z,985.85
2023-10-03T10:45:58.743Z,985.84
2023-10-03T10:46:58.597Z,985.99
2023-10-03T10:47:58.596Z,985.96
2023-10-03T10:48:58.463Z,985.96
2023-10-03T10:50:17.397Z,985.93
2023-10-03T10:50:58.351Z,985.95
2023-10-03T10:51:58.243Z,986.01
2023-10-03T10:52:58.110Z,985.89
2023-10-03T10:53:58.066Z,985.91
2023-10-03T10:54:57.965Z,986.02
2023-10-03T10:55:57.859Z,985.90
2023-10-03T10:56:57.865Z,985.96
2023-10-03T10:57:57.691Z,986.00
2023-10-03T10:58:57.621Z,986.01
2023-10-03T10:59:57.577Z,986.01
2023-10-03T11:00:57.467Z,985.93
2023-10-03T11:01:57.365Z,985.96
2023-10-03T11:02:57.458Z,986.00
2023-10-03T11:03:57.535Z,986.10
2023-10-03T11:04:57.120Z,986.07
2023-10-03T11:05:57.046Z,986.07
2023-10-03T11:06:56.958Z,985.98
2023-10-03T11:07:56.866Z,986.12
2023-10-03T11:08:56.820Z,986.25
2023-10-03T11:09:56.705Z,986.13
2023-10-03T11:10:56.621Z,986.20
2023-10-03T11:11:56.637Z,986.29
2023-10-03T11:12:56.481Z,986.23
2023-10-03T11:13:56.366Z,986.23
2023-10-03T11:14:56.326Z,986.22
2023-10-03T11:15:56.225Z,986.18
2023-10-03T11:16:56.124Z,986.13
2023-10-03T11:17:56.149Z,986.23
2023-10-03T11:18:56.160Z,986.21
2023-10-03T11:19:55.935Z,986.32
2023-10-03T11:20:55.859Z,986.27
2023-10-03T11:21:55.735Z,986.27
2023-10-03T11:22:55.637Z,986.31
2023-10-03T11:23:55.655Z,986.24
2023-10-03T11:24:55.464Z,986.24
2023-10-03T11:25:55.383Z,986.25
2023-10-03T11:26:55.319Z,986.21
2023-10-03T11:27:55.252Z,986.22
2023-10-03T11:28:55.245Z,986.17
2023-10-03T11:29:55.117Z,986.23
2023-10-03T11:30:54.977Z,986.13
2023-10-03T11:31:54.920Z,986.20
2023-10-03T11:32:54.859Z,986.26
2023-10-03T11:33:54.816Z,986.33
2023-10-03T11:34:54.640Z,986.22
2023-10-03T11:35:54.571Z,986.22
2023-10-03T11:36:54.477Z,986.13
2023-10-03T11:37:54.402Z,986.08
2023-10-03T11:38:54.394Z,986.15
2023-10-03T11:39:54.228Z,985.97
2023-10-03T11:40:54.152Z,986.00
2023-10-03T11:41:54.130Z,986.03
2023-10-03T11:42:53.984Z,986.10
2023-10-03T11:43:53.904Z,986.13
2023-10-03T11:44:53.914Z,986.11
2023-10-03T11:45:56.337Z,986.15
2023-10-03T11:46:53.693Z,986.12
2023-10-03T11:47:53.630Z,986.10
2023-10-03T11:48:53.524Z,985.97
2023-10-03T11:49:53.426Z,986.03
2023-10-03T11:50:53.342Z,986.05
2023-10-03T11:51:53.245Z,985.95
2023-10-03T11:52:53.153Z,986.02
2023-10-03T11:53:53.101Z,986.07
2023-10-03T11:54:53.117Z,986.03
2023-10-03T11:55:52.914Z,986.03
2023-10-03T11:56:52.838Z,986.02
2023-10-03T11:57:52.782Z,986.07
2023-10-03T11:58:52.671Z,986.00
2023-10-03T11:59:52.649Z,986.02
2023-10-03T12:00:52.628Z,986.00
2023-10-03T12:01:52.420Z,986.09
2023-10-03T12:02:52.379Z,986.05
2023-10-03T12:03:52.344Z,986.02
2023-10-03T12:04:52.195Z,985.96
2023-10-03T12:05:52.118Z,986.03
2023-10-03T12:06:52.082Z,985.97
2023-10-03T12:07:51.936Z,986.01
2023-10-03T12:08:51.903Z,986.07
2023-10-03T12:09:51.742Z,986.05
2023-10-03T12:10:51.674Z,986.00
2023-10-03T12:11:51.620Z,985.99
2023-10-03T12:12:51.500Z,986.00
2023-10-03T12:13:51.434Z,985.97
2023-10-03T12:14:51.396Z,985.91
2023-10-03T12:15:51.291Z,986.03
2023-10-03T12:16:51.179Z,986.00
2023-10-03T12:17:51.197Z,985.92
2023-10-03T12:18:51.103Z,986.01
2023-10-03T12:19:50.970Z,985.92
2023-10-03T12:20:50.887Z,985.93
2023-10-03T12:21:50.772Z,986.04
2023-10-03T12:22:50.948Z,986.01
2023-10-03T12:23:50.643Z,986.11
2023-10-03T12:24:50.519Z,986.03
2023-10-03T12:25:50.433Z,986.09
2023-10-03T12:26:50.378Z,986.06
2023-10-03T12:27:50.323Z,986.07